Time;durP1;ratioP1;P1;durP2;ratioP2;P2;SDS_P1;SDS_P2;PMS_P1;PMS_P2;Temp;Humidity;BMP_temperature;BMP_pressure;BME280_temperature;BME280_humidity;BME280_pressure;Samples;Min_cycle;Max_cycle;Signal;HPM_P1;HPM_P2
2022/05/22 00:01:24;;;;;;;4.60;3.10;;;9.20;99.90;;;;;;5011883;28;20121;-62
2022/05/22 00:03:50;;;;;;;41.83;5.75;;;9.20;99.90;;;;;;4997814;28;20183;-62
2022/05/22 00:06:16;;;;;;;18.83;7.07;;;9.20;99.90;;;;;;4994990;28;20046;-62
2022/05/22 00:08:41;;;;;;;19.05;6.05;;;9.10;99.90;;;;;;5013990;28;20038;-63
2022/05/22 00:11:07;;;;;;;10.00;5.85;;;9.10;99.90;;;;;;5014632;28;20129;-61
2022/05/22 00:13:32;;;;;;;18.30;6.45;;;9.20;99.90;;;;;;5002619;28;20119;-62
2022/05/22 00:18:42;;;;;;;128.50;6.28;;;9.10;99.90;;;;;;5013556;28;20045;-61
2022/05/22 00:21:08;;;;;;;30.65;4.97;;;9.00;99.90;;;;;;5002419;28;20042;-61
2022/05/22 00:23:33;;;;;;;35.40;4.70;;;9.00;99.90;;;;;;5010045;28;20046;-61
2022/05/22 00:25:59;;;;;;;6.78;4.53;;;9.00;99.90;;;;;;5013234;28;20041;-62
2022/05/22 00:28:25;;;;;;;11.40;6.93;;;9.00;99.90;;;;;;5010185;28;20050;-62
2022/05/22 00:30:50;;;;;;;12.50;6.50;;;9.00;99.90;;;;;;5012509;28;20131;-62
2022/05/22 00:33:16;;;;;;;7.07;4.50;;;9.00;99.90;;;;;;5013374;28;20038;-62
2022/05/22 00:35:43;;;;;;;6.82;4.65;;;8.90;99.90;;;;;;5013422;28;20100;-61
2022/05/22 00:38:08;;;;;;;8.82;5.93;;;8.90;99.90;;;;;;4997614;28;20128;-61
2022/05/22 00:40:34;;;;;;;7.65;2.97;;;8.90;99.90;;;;;;4995585;28;20129;-62
2022/05/22 00:43:01;;;;;;;6.47;3.95;;;8.70;99.90;;;;;;4995638;28;20124;-62
2022/05/22 00:45:27;;;;;;;9.73;5.15;;;8.70;99.90;;;;;;5009523;28;20046;-62
2022/05/22 00:47:53;;;;;;;5.28;2.97;;;8.70;99.90;;;;;;4980259;28;20528;-61
2022/05/22 00:50:21;;;;;;;16.55;2.50;;;8.70;99.90;;;;;;5013190;28;20049;-62
2022/05/22 00:52:53;;;;;;;2.85;1.92;;;8.60;99.90;;;;;;5007929;28;20668;-62
2022/05/22 00:55:25;;;;;;;7.35;3.50;;;8.50;99.90;;;;;;5007718;28;20125;-62
2022/05/22 00:57:58;;;;;;;5.70;3.50;;;8.40;99.90;;;;;;5012970;28;20034;-62
2022/05/22 01:00:31;;;;;;;3.10;2.10;;;8.40;99.90;;;;;;5012339;28;20052;-61
2022/05/22 01:06:08;;;;;;;3.92;2.88;;;8.40;99.90;;;;;;4988793;28;20049;-61
2022/05/22 01:08:35;;;;;;;4.60;2.53;;;8.40;99.90;;;;;;5012869;28;20080;-61
2022/05/22 01:11:32;;;;;;;7.65;3.65;;;8.30;99.90;;;;;;5001566;28;20041;-61
2022/05/22 01:14:06;;;;;;;6.05;3.50;;;8.30;99.90;;;;;;5011491;28;20056;-61
2022/05/22 01:16:33;;;;;;;34.83;4.22;;;8.30;99.90;;;;;;5012618;28;20576;-62
2022/05/22 01:18:58;;;;;;;57.63;4.38;;;8.30;99.90;;;;;;5003520;28;20061;-62
2022/05/22 01:21:34;;;;;;;66.78;3.92;;;8.20;99.90;;;;;;5001795;28;20864;-62
2022/05/22 01:23:59;;;;;;;145.35;7.03;;;8.20;99.90;;;;;;5012636;28;20046;-61
2022/05/22 01:26:27;;;;;;;110.10;7.18;;;8.20;99.90;;;;;;5001870;28;20412;-61
2022/05/22 01:28:53;;;;;;;44.70;6.28;;;8.20;99.90;;;;;;4998186;28;20052;-61
2022/05/22 01:31:18;;;;;;;16.13;8.95;;;8.20;99.90;;;;;;5012340;28;20125;-62
2022/05/22 01:33:44;;;;;;;15.75;9.52;;;8.30;99.90;;;;;;5012309;28;20452;-62
2022/05/22 01:36:11;;;;;;;18.55;10.02;;;8.30;99.90;;;;;;5000235;28;20045;-62
2022/05/22 01:38:37;;;;;;;16.55;10.30;;;8.40;99.90;;;;;;5002774;28;20038;-62
2022/05/22 01:41:05;;;;;;;14.77;8.82;;;8.50;99.90;;;;;;5012389;28;20084;-62
2022/05/22 01:43:30;;;;;;;15.25;4.32;;;8.50;99.90;;;;;;5001695;28;20038;-62
2022/05/22 01:45:56;;;;;;;148.10;7.80;;;8.40;99.90;;;;;;5010673;28;20037;-61
2022/05/22 01:48:23;;;;;;;3.97;3.35;;;8.30;99.90;;;;;;5011942;28;20053;-62
2022/05/22 01:50:49;;;;;;;11.48;4.65;;;8.20;99.90;;;;;;5012332;28;20057;-62
2022/05/22 01:53:16;;;;;;;97.25;7.03;;;8.10;99.90;;;;;;5002844;28;20038;-62
2022/05/22 01:55:42;;;;;;;829.70;24.02;;;7.90;99.90;;;;;;5011156;28;20064;-61
2022/05/22 01:58:08;;;;;;;694.97;21.27;;;7.80;99.90;;;;;;5012239;28;20075;-61
2022/05/22 02:00:35;;;;;;;328.67;11.30;;;7.70;99.90;;;;;;4997554;28;20084;-61
2022/05/22 02:03:02;;;;;;;121.45;7.00;;;7.70;99.90;;;;;;5003317;28;20573;-61
2022/05/22 02:05:28;;;;;;;123.90;6.82;;;7.70;99.90;;;;;;5011890;28;20046;-62
2022/05/22 02:10:40;;;;;;;70.28;9.13;;;7.70;99.90;;;;;;5005539;28;20042;-61
2022/05/22 02:13:06;;;;;;;23.10;8.60;;;7.80;99.90;;;;;;5010690;28;20556;-62
2022/05/22 02:15:31;;;;;;;13.02;6.55;;;7.80;99.90;;;;;;5011545;28;20038;-61
2022/05/22 02:17:57;;;;;;;45.70;7.38;;;7.80;99.90;;;;;;4994201;28;20080;-62
2022/05/22 02:20:23;;;;;;;15.10;8.30;;;7.80;99.90;;;;;;5011590;28;20471;-61
2022/05/22 02:22:51;;;;;;;8.93;6.57;;;7.80;99.90;;;;;;5011687;28;20137;-61
2022/05/22 02:25:20;;;;;;;11.32;7.25;;;7.80;99.90;;;;;;5008494;28;20206;-62
2022/05/22 02:27:46;;;;;;;15.10;10.35;;;7.80;99.90;;;;;;5001632;28;20494;-62
2022/05/22 02:30:15;;;;;;;21.45;11.55;;;7.80;99.90;;;;;;5011400;28;20105;-62
2022/05/22 02:32:41;;;;;;;9.60;6.13;;;7.90;99.90;;;;;;5007837;28;20441;-60
2022/05/22 02:35:09;;;;;;;32.08;5.65;;;7.80;99.90;;;;;;5003029;28;20049;-61
2022/05/22 02:37:45;;;;;;;75.95;6.10;;;7.60;99.90;;;;;;5011336;28;20080;-62
2022/05/22 02:40:12;;;;;;;58.03;5.72;;;7.40;99.90;;;;;;5011504;28;20117;-61
2022/05/22 02:42:40;;;;;;;43.25;5.68;;;7.40;99.90;;;;;;5001544;28;20038;-61
2022/05/22 02:45:06;;;;;;;36.20;5.10;;;7.30;99.90;;;;;;5010915;28;20030;-61
2022/05/22 02:47:33;;;;;;;148.60;7.15;;;7.30;99.90;;;;;;5011425;28;20084;-61
2022/05/22 02:49:58;;;;;;;100.53;5.38;;;7.20;99.90;;;;;;5002080;28;20046;-61
2022/05/22 02:52:24;;;;;;;59.42;5.07;;;7.00;99.90;;;;;;5002570;28;20553;-61
2022/05/22 02:54:50;;;;;;;19.35;3.88;;;6.90;99.90;;;;;;5011179;28;20049;-61
2022/05/22 02:57:21;;;;;;;5.57;3.53;;;6.80;99.90;;;;;;5011246;28;20069;-61
2022/05/22 02:59:48;;;;;;;15.20;4.05;;;6.90;99.90;;;;;;5004302;28;20038;-61
2022/05/22 03:02:14;;;;;;;23.90;7.07;;;6.90;99.90;;;;;;5002210;28;20030;-62
2022/05/22 03:04:40;;;;;;;21.63;4.80;;;6.90;99.90;;;;;;5011234;28;20044;-61
2022/05/22 03:07:06;;;;;;;10.00;5.18;;;6.90;99.90;;;;;;5005550;28;20030;-62
2022/05/22 03:09:32;;;;;;;11.02;5.20;;;7.00;99.90;;;;;;5000919;28;20123;-61
2022/05/22 03:12:03;;;;;;;17.25;4.20;;;7.00;99.90;;;;;;5010917;28;20507;-61
2022/05/22 03:14:29;;;;;;;;;;;7.00;99.90;;;;;;5008346;28;20052;-62
2022/05/22 03:16:55;;;;;;;48.65;7.68;;;6.90;99.90;;;;;;5004271;28;20286;-62
2022/05/22 03:19:21;;;;;;;6.78;3.50;;;6.90;99.90;;;;;;4988166;28;20045;-61
2022/05/22 03:21:46;;;;;;;8.02;5.28;;;6.90;99.90;;;;;;5005225;28;20044;-61
2022/05/22 03:24:12;;;;;;;62.35;5.50;;;6.90;99.90;;;;;;5008065;28;20042;-61
2022/05/22 03:26:37;;;;;;;5.03;4.07;;;6.90;99.90;;;;;;5013382;28;20045;-61
2022/05/22 03:29:03;;;;;;;6.13;5.18;;;6.90;99.90;;;;;;5014884;28;20042;-60
2022/05/22 03:31:28;;;;;;;86.20;5.70;;;6.90;99.90;;;;;;5000876;28;20053;-61
2022/05/22 03:33:54;;;;;;;105.65;5.72;;;6.90;99.90;;;;;;5010208;28;20038;-62
2022/05/22 03:36:19;;;;;;;4.57;3.72;;;6.90;99.90;;;;;;5014199;28;20050;-61
2022/05/22 03:38:45;;;;;;;4.65;4.07;;;6.80;99.90;;;;;;5014408;28;20049;-61
2022/05/22 03:41:10;;;;;;;61.88;6.13;;;6.80;99.90;;;;;;5006993;28;20042;-63
2022/05/22 03:43:36;;;;;;;14.52;4.43;;;6.90;99.90;;;;;;5013893;28;20037;-62
2022/05/22 03:46:02;;;;;;;46.92;4.68;;;6.80;99.90;;;;;;4996751;28;20041;-62
2022/05/22 03:48:27;;;;;;;92.75;6.15;;;6.90;99.90;;;;;;5014224;28;20087;-62
2022/05/22 03:50:53;;;;;;;24.80;4.50;;;6.90;99.90;;;;;;5007127;28;20046;-63
2022/05/22 03:53:19;;;;;;;26.17;5.75;;;6.90;99.90;;;;;;5009275;28;20041;-62
2022/05/22 03:55:44;;;;;;;33.75;4.50;;;6.90;99.90;;;;;;5014112;28;20383;-61
2022/05/22 03:58:11;;;;;;;14.43;3.55;;;7.00;99.90;;;;;;4998080;28;20049;-62
2022/05/22 04:00:37;;;;;;;9.38;3.30;;;7.00;99.90;;;;;;5007308;28;20038;-62
2022/05/22 04:03:02;;;;;;;9.90;3.60;;;7.00;99.90;;;;;;5014354;28;20034;-62
2022/05/22 04:05:29;;;;;;;4.95;3.70;;;7.00;99.90;;;;;;5011907;28;20478;-60
2022/05/22 04:07:54;;;;;;;14.13;4.68;;;7.00;99.90;;;;;;4987275;28;20054;-61
2022/05/22 04:10:20;;;;;;;22.17;4.15;;;7.00;99.90;;;;;;5013931;28;20038;-62
2022/05/22 04:12:46;;;;;;;33.88;4.65;;;7.00;99.90;;;;;;5009298;28;20053;-62
2022/05/22 04:15:18;;;;;;;55.72;5.38;;;7.10;99.90;;;;;;5006376;28;20040;-63
2022/05/22 04:17:44;;;;;;;109.10;7.50;;;7.10;99.90;;;;;;5013513;28;20544;-61
2022/05/22 04:20:10;;;;;;;71.10;7.07;;;7.20;99.90;;;;;;5014254;28;20049;-62
2022/05/22 04:25:21;;;;;;;43.03;5.35;;;7.20;99.90;;;;;;5007816;28;20046;-62
2022/05/22 04:27:47;;;;;;;34.30;5.68;;;7.30;99.90;;;;;;5013549;28;20524;-62
2022/05/22 04:30:17;;;;;;;38.47;5.00;;;7.30;99.90;;;;;;5002542;28;20074;-62
2022/05/22 04:32:47;;;;;;;10.80;4.40;;;7.30;99.90;;;;;;5007846;28;20049;-62
2022/05/22 04:35:13;;;;;;;10.23;5.15;;;7.30;99.90;;;;;;5000401;28;20502;-62
2022/05/22 04:37:39;;;;;;;5.25;4.72;;;7.40;99.90;;;;;;5010178;28;20487;-61
2022/05/22 04:40:06;;;;;;;10.73;5.10;;;7.40;99.90;;;;;;4996422;28;20616;-62
2022/05/22 04:42:36;;;;;;;6.55;5.32;;;7.40;99.90;;;;;;5002769;28;20042;-62
2022/05/22 04:45:03;;;;;;;8.15;6.00;;;7.50;99.90;;;;;;5004804;28;20041;-62
2022/05/22 04:47:29;;;;;;;11.85;6.50;;;7.50;99.90;;;;;;4985042;28;20125;-62
2022/05/22 04:49:54;;;;;;;7.07;5.72;;;7.60;99.90;;;;;;5011975;28;20145;-62
2022/05/22 04:52:20;;;;;;;7.00;6.10;;;7.60;99.90;;;;;;5013071;28;20042;-62
2022/05/22 04:54:47;;;;;;;7.22;5.82;;;7.70;99.90;;;;;;4999166;28;20572;-62
2022/05/22 04:57:12;;;;;;;6.70;5.68;;;7.80;99.90;;;;;;5011824;28;20037;-62
2022/05/22 04:59:38;;;;;;;12.25;6.88;;;7.90;99.90;;;;;;5012694;28;20041;-63
2022/05/22 05:02:04;;;;;;;10.13;7.00;;;8.00;99.90;;;;;;5005710;28;20113;-61
2022/05/22 05:04:29;;;;;;;11.27;7.45;;;8.10;99.90;;;;;;5006906;28;20508;-61
2022/05/22 05:06:56;;;;;;;12.38;8.20;;;8.20;99.90;;;;;;5011883;28;20053;-62
2022/05/22 05:09:22;;;;;;;12.48;7.28;;;8.30;99.90;;;;;;5013176;28;20116;-61
2022/05/22 05:11:48;;;;;;;11.60;8.07;;;8.40;99.90;;;;;;5001406;28;20499;-62
2022/05/22 05:14:13;;;;;;;13.55;9.07;;;8.50;99.90;;;;;;5010961;28;20042;-62
2022/05/22 05:16:39;;;;;;;12.25;9.82;;;8.60;99.90;;;;;;5011910;28;20037;-61
2022/05/22 05:19:05;;;;;;;26.77;16.23;;;8.80;99.90;;;;;;5012998;28;20042;-62
2022/05/22 05:21:31;;;;;;;24.67;16.27;;;8.90;99.90;;;;;;4978577;28;20054;-62
2022/05/22 05:23:56;;;;;;;30.88;18.17;;;9.10;99.90;;;;;;5011732;28;20389;-61
2022/05/22 05:26:23;;;;;;;25.48;16.90;;;9.20;99.90;;;;;;5012642;28;20113;-62
2022/05/22 05:28:49;;;;;;;33.13;18.20;;;9.30;99.90;;;;;;4987771;28;20042;-62
2022/05/22 05:31:15;;;;;;;30.42;18.77;;;9.50;99.90;;;;;;5002811;28;20065;-62
2022/05/22 05:33:40;;;;;;;29.75;17.80;;;9.60;99.90;;;;;;5012312;28;20409;-62
2022/05/22 05:36:11;;;;;;;27.77;17.25;;;9.70;99.90;;;;;;5007685;28;23499;-62
2022/05/22 05:38:37;;;;;;;28.83;17.25;;;9.80;99.90;;;;;;5004816;28;20030;-61
2022/05/22 05:41:03;;;;;;;32.90;18.67;;;9.90;99.90;;;;;;5012017;28;20091;-61
2022/05/22 05:43:28;;;;;;;36.20;19.13;;;10.10;99.90;;;;;;5010728;28;20453;-61
2022/05/22 05:45:54;;;;;;;35.85;20.70;;;10.20;99.90;;;;;;5001971;28;20045;-63
2022/05/22 05:48:19;;;;;;;37.15;20.45;;;10.40;99.90;;;;;;5012189;28;20049;-62
2022/05/22 05:50:46;;;;;;;34.63;20.23;;;10.50;99.90;;;;;;5012351;28;20120;-62
2022/05/22 05:53:11;;;;;;;36.17;19.20;;;10.60;99.90;;;;;;5004376;28;20056;-62
2022/05/22 05:55:37;;;;;;;35.00;20.25;;;10.70;99.90;;;;;;5007472;28;20554;-62
2022/05/22 05:58:03;;;;;;;32.97;18.80;;;10.90;99.90;;;;;;5004336;28;20037;-62
2022/05/22 06:00:30;;;;;;;30.27;16.63;;;11.00;99.90;;;;;;4993829;28;20046;-63
2022/05/22 06:02:55;;;;;;;31.75;14.80;;;11.20;99.90;;;;;;5012052;28;20053;-61
2022/05/22 06:05:21;;;;;;;30.75;14.40;;;11.30;99.90;;;;;;4994710;28;20042;-62
2022/05/22 06:07:51;;;;;;;29.85;13.82;;;11.40;99.90;;;;;;5002264;28;20125;-61
2022/05/22 06:10:19;;;;;;;22.25;12.65;;;11.60;99.90;;;;;;5000954;28;20042;-62
2022/05/22 06:12:46;;;;;;;23.05;13.15;;;11.70;99.90;;;;;;5003462;23;20434;-63
2022/05/22 06:15:13;;;;;;;25.88;12.63;;;11.80;99.90;;;;;;4991377;28;20082;-62
2022/05/22 06:17:44;;;;;;;22.98;12.23;;;11.90;99.90;;;;;;4992442;28;20113;-62
2022/05/22 06:20:12;;;;;;;26.45;12.48;;;12.00;99.90;;;;;;4975751;28;20054;-62
2022/05/22 06:22:38;;;;;;;21.60;11.80;;;12.20;99.90;;;;;;5003413;28;20084;-62
2022/05/22 06:25:07;;;;;;;25.55;11.82;;;12.20;99.90;;;;;;5011613;28;20042;-62
2022/05/22 06:27:32;;;;;;;19.48;11.00;;;12.30;99.90;;;;;;4996235;28;20070;-62
2022/05/22 06:29:58;;;;;;;24.73;12.05;;;12.40;99.90;;;;;;5005325;28;20073;-62
2022/05/22 06:32:24;;;;;;;20.65;11.25;;;12.50;99.90;;;;;;5011485;28;20045;-62
2022/05/22 06:34:50;;;;;;;21.15;9.82;;;12.60;99.90;;;;;;4999701;28;20042;-62
2022/05/22 06:37:21;;;;;;;24.92;9.50;;;12.70;99.90;;;;;;4998288;28;20041;-62
2022/05/22 06:39:50;;;;;;;19.90;9.93;;;12.80;99.90;;;;;;5011362;28;20037;-61
2022/05/22 06:42:32;;;;;;;16.08;8.88;;;12.90;99.90;;;;;;5007466;28;20413;-61
2022/05/22 06:45:04;;;;;;;24.90;10.25;;;13.00;99.90;;;;;;5002868;28;20113;-61
2022/05/22 06:47:30;;;;;;;;;;;13.10;99.90;;;;;;5011763;28;20040;-62
2022/05/22 06:49:57;;;;;;;19.05;8.18;;;13.10;99.90;;;;;;5011569;28;19917;-63
2022/05/22 06:52:23;;;;;;;17.95;7.57;;;13.20;99.90;;;;;;4998330;28;20161;-61
2022/05/22 06:54:49;;;;;;;22.55;8.73;;;13.30;99.90;;;;;;5006951;28;20052;-62
2022/05/22 06:57:19;;;;;;;20.75;8.15;;;13.30;99.90;;;;;;4993820;28;20133;-61
2022/05/22 06:59:46;;;;;;;16.30;8.70;;;13.30;99.90;;;;;;5006985;28;20126;-63
2022/05/22 07:02:13;;;;;;;15.18;8.52;;;13.40;99.90;;;;;;5005253;28;20045;-62
2022/05/22 07:04:39;;;;;;;22.08;9.35;;;13.40;99.90;;;;;;5014868;28;20038;-62
2022/05/22 07:07:06;;;;;;;19.17;9.70;;;13.50;99.90;;;;;;5014587;28;20030;-62
2022/05/22 07:09:32;;;;;;;22.35;8.20;;;13.50;99.90;;;;;;5005999;28;20089;-61
2022/05/22 07:11:59;;;;;;;18.65;7.70;;;13.60;99.90;;;;;;5014002;28;20033;-62
2022/05/22 07:14:27;;;;;;;16.73;8.43;;;13.70;99.90;;;;;;5015375;28;20122;-63
2022/05/22 07:16:53;;;;;;;11.38;7.00;;;13.80;99.90;;;;;;4987421;28;20085;-61
2022/05/22 07:19:19;;;;;;;20.75;7.57;;;13.80;99.90;;;;;;5003254;28;20049;-62
2022/05/22 07:21:46;;;;;;;18.55;8.10;;;13.90;99.90;;;;;;5014286;28;20034;-62
2022/05/22 07:24:13;;;;;;;16.02;7.60;;;14.00;99.90;;;;;;5015095;28;20042;-62
2022/05/22 07:26:38;;;;;;;17.48;7.25;;;14.00;99.90;;;;;;4988562;28;20046;-62
2022/05/22 07:29:04;;;;;;;16.90;7.47;;;14.10;99.90;;;;;;5012671;28;20042;-62
2022/05/22 07:31:32;;;;;;;16.83;7.57;;;14.20;99.90;;;;;;5014803;28;20038;-61
2022/05/22 07:33:58;;;;;;;14.80;6.30;;;14.20;99.90;;;;;;5003384;28;20034;-61
2022/05/22 07:36:24;;;;;;;16.15;6.82;;;14.30;99.90;;;;;;5013539;28;20041;-62
2022/05/22 07:38:50;;;;;;;10.55;6.55;;;14.30;99.90;;;;;;5014737;28;20042;-63
2022/05/22 07:41:16;;;;;;;18.27;6.35;;;14.40;99.90;;;;;;5014472;28;20153;-62
2022/05/22 07:43:42;;;;;;;16.23;6.60;;;14.40;99.90;;;;;;5002581;28;20089;-62
2022/05/22 07:46:09;;;;;;;12.75;6.20;;;14.50;99.90;;;;;;5011973;28;20026;-63
2022/05/22 07:48:35;;;;;;;11.88;5.43;;;14.60;99.90;;;;;;5014419;28;20042;-63
2022/05/22 07:51:03;;;;;;;13.20;5.38;;;14.60;99.90;;;;;;4999427;28;20375;-62
2022/05/22 07:53:30;;;;;;;18.92;6.22;;;14.60;99.90;;;;;;5011261;28;20046;-62
2022/05/22 07:55:56;;;;;;;13.77;4.88;;;14.70;99.90;;;;;;5014315;28;20125;-62
2022/05/22 07:58:23;;;;;;;12.77;3.95;;;14.70;99.90;;;;;;5006073;28;20121;-63
2022/05/22 08:00:50;;;;;;;13.05;4.53;;;14.70;99.90;;;;;;5010618;28;20410;-62
2022/05/22 08:03:17;;;;;;;13.65;5.00;;;14.80;99.90;;;;;;5014284;28;20048;-63
2022/05/22 08:05:43;;;;;;;13.65;5.20;;;14.90;99.90;;;;;;5014736;28;20037;-62
2022/05/22 08:08:09;;;;;;;11.23;5.38;;;15.00;99.90;;;;;;5001301;28;20076;-63
2022/05/22 08:10:37;;;;;;;12.90;4.93;;;15.00;99.90;;;;;;5009216;28;20559;-62
2022/05/22 08:13:04;;;;;;;9.45;4.30;;;15.00;99.90;;;;;;4994803;28;20049;-63
2022/05/22 08:15:31;;;;;;;10.20;4.50;;;15.00;99.90;;;;;;4992982;28;20572;-62
2022/05/22 08:17:58;;;;;;;10.25;4.28;;;15.10;99.90;;;;;;5011969;28;20371;-62
2022/05/22 08:20:25;;;;;;;16.38;4.68;;;15.20;99.90;;;;;;5013753;28;20091;-62
2022/05/22 08:22:56;;;;;;;11.63;4.32;;;15.30;99.90;;;;;;5009261;28;20034;-63
2022/05/22 08:25:24;;;;;;;8.88;4.18;;;15.30;99.90;;;;;;5007603;28;20133;-63
2022/05/22 08:27:53;;;;;;;12.13;4.10;;;15.40;99.90;;;;;;5013648;28;20042;-63
2022/05/22 08:30:20;;;;;;;11.50;5.18;;;15.50;99.90;;;;;;5013733;28;20045;-63
2022/05/22 08:32:47;;;;;;;12.55;4.90;;;15.60;99.90;;;;;;5008973;28;20045;-63
2022/05/22 08:35:19;;;;;;;10.95;4.63;;;15.70;99.90;;;;;;5010133;28;20041;-63
2022/05/22 08:37:45;;;;;;;10.98;3.72;;;15.80;99.90;;;;;;5013276;28;20037;-63
2022/05/22 08:40:14;;;;;;;9.93;3.88;;;15.80;99.90;;;;;;5007513;28;20045;-62
2022/05/22 08:42:48;;;;;;;12.45;4.45;;;15.90;99.90;;;;;;5006948;28;20033;-63
2022/05/22 08:45:27;;;;;;;11.18;4.10;;;15.90;99.90;;;;;;5013022;28;20497;-63
2022/05/22 08:48:12;;;;;;;9.45;3.80;;;16.00;99.90;;;;;;5007504;28;20038;-63
2022/05/22 08:50:39;;;;;;;10.52;4.22;;;16.10;99.90;;;;;;5008768;28;20034;-61
2022/05/22 08:53:18;;;;;;;10.18;3.97;;;16.20;99.90;;;;;;4995800;28;20049;-63
2022/05/22 08:58:58;;;;;;;9.13;4.28;;;16.40;99.90;;;;;;4997923;28;20042;-63
2022/05/22 09:01:54;;;;;;;8.95;4.55;;;16.60;99.90;;;;;;5007491;28;20042;-63
2022/05/22 09:04:43;;;;;;;10.80;4.03;;;16.60;99.90;;;;;;4992613;28;20386;-60
2022/05/22 09:07:11;;;;;;;8.27;3.92;;;16.70;99.90;;;;;;5004029;28;20113;-63
2022/05/22 09:09:39;;;;;;;11.77;3.63;;;16.90;99.90;;;;;;5011631;28;20116;-63
2022/05/22 09:12:17;;;;;;;10.02;3.80;;;17.00;99.90;;;;;;5012246;28;20056;-63
2022/05/22 09:14:53;;;;;;;12.05;3.90;;;17.20;99.90;;;;;;5001044;28;20045;-62
2022/05/22 09:17:27;;;;;;;11.50;4.10;;;17.40;99.90;;;;;;4993622;28;20045;-62
2022/05/22 09:19:58;;;;;;;9.57;3.58;;;17.50;99.90;;;;;;5011977;28;20042;-63
2022/05/22 09:22:35;;;;;;;8.55;3.55;;;17.70;99.90;;;;;;5011069;28;20077;-63
2022/05/22 09:25:28;;;;;;;10.57;3.50;;;17.80;99.90;;;;;;5010701;28;20041;-62
2022/05/22 09:28:11;;;;;;;11.43;3.75;;;17.90;99.90;;;;;;5011312;28;20050;-63
2022/05/22 09:30:54;;;;;;;13.20;4.60;;;18.20;99.90;;;;;;5001561;28;20037;-63
2022/05/22 09:33:30;;;;;;;8.10;3.60;;;18.40;99.90;;;;;;5011210;28;20046;-63
2022/05/22 09:36:14;;;;;;;8.85;3.65;;;18.40;99.90;;;;;;5011262;28;20410;-63
2022/05/22 09:38:56;;;;;;;9.63;3.35;;;18.50;99.90;;;;;;5011507;28;20045;-62
2022/05/22 09:41:24;;;;;;;9.27;3.58;;;18.70;99.90;;;;;;5003601;28;20045;-63
2022/05/22 09:44:09;;;;;;;7.20;3.33;;;18.70;99.90;;;;;;5009675;28;20092;-63
2022/05/22 09:46:50;;;;;;;11.50;3.80;;;18.90;99.90;;;;;;5003109;28;20092;-64
2022/05/22 09:49:38;;;;;;;12.90;4.17;;;19.10;99.90;;;;;;5004624;28;20045;-63
2022/05/22 09:52:26;;;;;;;13.48;3.70;;;19.20;99.90;;;;;;5003486;28;20038;-63
2022/05/22 09:55:16;;;;;;;7.60;3.25;;;19.30;99.90;;;;;;5011231;28;20120;-62
2022/05/22 09:58:00;;;;;;;8.13;3.35;;;19.10;99.90;;;;;;5004980;28;20052;-63
2022/05/22 10:00:39;;;;;;;7.95;3.20;;;19.20;99.90;;;;;;5006371;28;20123;-63
2022/05/22 10:03:26;;;;;;;12.32;3.33;;;19.20;99.90;;;;;;4990672;28;20038;-63
2022/05/22 10:06:10;;;;;;;9.10;3.20;;;19.30;99.90;;;;;;5009244;28;20072;-63
2022/05/22 10:08:57;;;;;;;8.55;3.35;;;19.40;99.90;;;;;;5010623;28;20050;-63
2022/05/22 10:11:35;;;;;;;8.40;3.35;;;19.50;99.90;;;;;;4968072;28;20061;-60
2022/05/22 10:14:19;;;;;;;8.63;3.38;;;19.50;99.90;;;;;;5005292;28;20204;-63
2022/05/22 10:17:15;;;;;;;9.23;3.30;;;19.50;99.90;;;;;;5010169;28;20045;-62
2022/05/22 10:19:51;;;;;;;8.68;3.08;;;19.60;99.90;;;;;;5005909;28;20490;-62
2022/05/22 10:22:36;;;;;;;8.80;3.17;;;19.50;99.90;;;;;;5004531;28;20034;-62
2022/05/22 10:25:18;;;;;;;8.52;3.05;;;19.50;99.90;;;;;;5010120;28;20096;-63
2022/05/22 10:27:55;;;;;;;9.88;3.35;;;19.50;99.90;;;;;;5011047;28;20069;-63
2022/05/22 10:30:29;;;;;;;13.77;3.80;;;19.60;99.90;;;;;;5000198;28;20064;-63
2022/05/22 10:33:02;;;;;;;9.40;3.05;;;19.60;99.90;;;;;;5008850;28;20044;-63
2022/05/22 10:35:29;;;;;;;7.20;3.15;;;19.60;99.90;;;;;;5010186;28;20044;-62
2022/05/22 10:38:01;;;;;;;8.25;3.15;;;19.60;99.90;;;;;;4996604;28;20042;-62
2022/05/22 10:42:44;;;;;;;8.15;3.13;;;19.50;99.90;;;;;;5006079;28;20107;-63
2022/05/22 10:43:13;;;;;;;8.35;3.00;;;19.30;99.90;;;;;;4991021;28;20042;-63
2022/05/22 10:45:38;;;;;;;6.43;2.88;;;19.30;99.90;;;;;;4991011;28;20122;-63
2022/05/22 10:48:21;;;;;;;8.43;3.10;;;19.30;99.90;;;;;;5000638;28;20038;-63
2022/05/22 10:51:06;;;;;;;7.53;2.88;;;19.40;99.90;;;;;;5010538;28;20034;-63
2022/05/22 10:53:38;;;;;;;6.85;2.90;;;19.50;99.90;;;;;;4999725;28;20050;-63
2022/05/22 10:56:16;;;;;;;9.15;3.15;;;19.60;99.90;;;;;;4994178;28;20109;-63
2022/05/22 10:59:02;;;;;;;8.82;2.97;;;19.70;99.90;;;;;;5010361;28;20038;-64
2022/05/22 11:01:34;;;;;;;8.52;2.47;;;20.00;99.90;;;;;;5010741;28;20045;-63
2022/05/22 11:04:15;;;;;;;7.47;3.00;;;20.10;99.90;;;;;;4983936;28;20116;-63
2022/05/22 11:06:58;;;;;;;8.25;2.60;;;20.30;99.90;;;;;;5007026;28;20113;-63
2022/05/22 11:09:27;;;;;;;6.80;3.00;;;20.20;99.30;;;;;;5006914;28;20049;-60
2022/05/22 11:12:07;;;;;;;7.68;2.85;;;20.20;99.90;;;;;;5001481;28;20077;-63
2022/05/22 11:14:35;;;;;;;8.88;3.80;;;20.20;99.90;;;;;;4992656;28;20418;-63
2022/05/22 11:17:21;;;;;;;8.20;3.00;;;20.40;99.90;;;;;;4992507;28;20050;-62
2022/05/22 11:19:49;;;;;;;11.52;2.78;;;20.50;99.90;;;;;;5003522;28;20567;-62
2022/05/22 11:22:58;;;;;;;9.00;3.25;;;20.60;99.90;;;;;;5009854;28;20095;-64
2022/05/22 11:25:35;;;;;;;8.48;2.60;;;20.70;99.90;;;;;;5004968;28;20564;-63
2022/05/22 11:28:38;;;;;;;8.63;2.60;;;20.80;99.90;;;;;;4997882;28;20482;-63
2022/05/22 11:31:09;;;;;;;10.60;3.13;;;20.90;99.90;;;;;;4994849;28;20108;-64
2022/05/22 11:34:19;;;;;;;8.25;2.80;;;20.90;99.90;;;;;;5000692;28;20037;-62
2022/05/22 11:37:12;;;;;;;7.53;2.72;;;20.70;99.90;;;;;;4965324;28;20084;-61
2022/05/22 11:40:08;;;;;;;8.02;2.70;;;20.20;98.00;;;;;;5019422;28;20551;-61
2022/05/22 11:42:38;;;;;;;10.23;3.10;;;20.10;99.90;;;;;;5011098;28;20048;-62
2022/05/22 11:45:32;;;;;;;13.93;3.20;;;20.40;99.90;;;;;;5010884;28;20029;-61
2022/05/22 11:48:15;;;;;;;8.00;2.80;;;20.40;99.90;;;;;;5004290;28;20049;-62
2022/05/22 11:51:08;;;;;;;9.13;2.85;;;20.60;96.90;;;;;;5013560;28;20038;-61
2022/05/22 11:54:02;;;;;;;10.23;3.22;;;20.90;99.80;;;;;;5012180;28;20057;-62
2022/05/22 11:56:57;;;;;;;5.22;2.40;;;21.10;99.20;;;;;;5015238;28;20200;-62
2022/05/22 12:00:08;;;;;;;9.88;2.78;;;20.80;99.60;;;;;;5010650;28;20049;-61
2022/05/22 12:03:00;;;;;;;8.05;2.83;;;20.60;98.80;;;;;;5006282;28;20038;-62
2022/05/22 12:05:41;;;;;;;11.15;2.85;;;20.70;96.80;;;;;;4998837;28;20037;-63
2022/05/22 12:08:10;;;;;;;7.47;2.90;;;20.80;99.70;;;;;;5003224;28;20497;-62
2022/05/22 12:10:46;;;;;;;11.10;3.25;;;21.20;99.90;;;;;;5011708;28;20049;-62
2022/05/22 12:13:36;;;;;;;5.75;2.80;;;21.60;99.90;;;;;;5018364;28;20045;-62
2022/05/22 12:16:36;;;;;;;5.47;2.60;;;21.80;97.60;;;;;;5005630;28;20083;-62
2022/05/22 12:19:22;;;;;;;7.72;3.05;;;21.90;99.90;;;;;;4984814;28;20046;-62
2022/05/22 12:21:54;;;;;;;6.55;2.75;;;22.10;96.50;;;;;;5012347;28;20128;-62
2022/05/22 12:24:47;;;;;;;6.80;2.08;;;22.40;98.00;;;;;;5012987;28;20044;-62
2022/05/22 12:27:31;;;;;;;7.88;2.30;;;22.50;95.70;;;;;;5002755;28;20042;-62
2022/05/22 12:30:03;;;;;;;6.30;2.40;;;22.60;95.10;;;;;;5001789;28;20579;-62
2022/05/22 12:32:33;;;;;;;5.80;2.10;;;22.60;97.70;;;;;;5012825;28;20045;-63
2022/05/22 12:35:00;;;;;;;7.78;2.33;;;22.60;97.60;;;;;;5000913;28;20042;-62
2022/05/22 12:37:38;;;;;;;7.25;2.72;;;22.70;97.60;;;;;;5007610;28;20046;-62
2022/05/22 12:40:37;;;;;;;5.25;2.28;;;22.70;91.90;;;;;;5012373;28;20060;-62
2022/05/22 12:43:05;;;;;;;8.05;2.63;;;22.30;95.30;;;;;;5000223;28;20095;-62
2022/05/22 12:45:31;;;;;;;6.50;2.80;;;22.20;97.90;;;;;;5010858;28;20158;-62
2022/05/22 12:48:11;;;;;;;7.22;2.63;;;21.90;98.60;;;;;;4991537;28;20088;-62
2022/05/22 12:50:46;;;;;;;6.68;2.45;;;21.80;96.90;;;;;;4995815;28;20072;-61
2022/05/22 12:53:39;;;;;;;5.40;2.63;;;22.00;95.60;;;;;;5013342;28;20034;-62
2022/05/22 12:56:29;;;;;;;7.55;2.30;;;22.20;96.30;;;;;;5016855;28;20044;-62
2022/05/22 12:59:00;;;;;;;5.63;2.17;;;22.60;95.30;;;;;;5015839;28;20038;-61
2022/05/22 13:01:34;;;;;;;5.18;2.10;;;22.80;98.90;;;;;;5017590;28;20129;-62
2022/05/22 13:04:06;;;;;;;5.75;2.40;;;23.00;96.40;;;;;;5019590;28;20040;-62
2022/05/22 13:06:44;;;;;;;5.15;2.20;;;22.80;95.70;;;;;;5014938;28;20134;-63
2022/05/22 13:09:32;;;;;;;6.63;2.55;;;23.00;95.20;;;;;;4992848;28;20041;-62
2022/05/22 13:12:02;;;;;;;7.85;2.20;;;23.40;95.00;;;;;;5011630;28;20050;-61
2022/05/22 13:14:33;;;;;;;3.83;1.95;;;23.80;96.60;;;;;;5011810;28;20048;-61
2022/05/22 13:16:59;;;;;;;5.80;1.92;;;23.80;96.20;;;;;;5001141;28;20049;-62
2022/05/22 13:19:28;;;;;;;6.40;2.00;;;23.70;97.10;;;;;;5009292;28;20571;-62